sensor_id;sensor_type;location;lat;lon;timestamp;P1;durP1;ratioP1;P2;durP2;ratioP2
68870;SDS011;55906;52.278;6.808;2023-11-22T00:00:13;9.25;;;6.10;;
68870;SDS011;55906;52.278;6.808;2023-11-22T00:02:40;10.10;;;6.65;;
68870;SDS011;55906;52.278;6.808;2023-11-22T00:05:07;11.80;;;7.05;;
68870;SDS011;55906;52.278;6.808;2023-11-22T00:07:36;8.83;;;6.20;;
68870;SDS011;55906;52.278;6.808;2023-11-22T00:10:03;9.57;;;6.40;;
68870;SDS011;55906;52.278;6.808;2023-11-22T00:12:31;8.48;;;6.07;;
68870;SDS011;55906;52.278;6.808;2023-11-22T00:15:03;9.50;;;6.20;;
68870;SDS011;55906;52.278;6.808;2023-11-22T00:17:31;9.93;;;6.18;;
68870;SDS011;55906;52.278;6.808;2023-11-22T00:19:58;9.40;;;6.45;;
68870;SDS011;55906;52.278;6.808;2023-11-22T00:22:25;10.70;;;6.93;;
68870;SDS011;55906;52.278;6.808;2023-11-22T00:24:52;10.18;;;6.18;;
68870;SDS011;55906;52.278;6.808;2023-11-22T00:27:19;9.75;;;6.60;;
68870;SDS011;55906;52.278;6.808;2023-11-22T00:29:47;9.88;;;6.18;;
68870;SDS011;55906;52.278;6.808;2023-11-22T00:32:15;9.93;;;6.53;;
68870;SDS011;55906;52.278;6.808;2023-11-22T00:34:41;9.85;;;7.03;;
68870;SDS011;55906;52.278;6.808;2023-11-22T00:37:08;9.52;;;6.75;;
68870;SDS011;55906;52.278;6.808;2023-11-22T00:39:35;9.80;;;6.97;;
68870;SDS011;55906;52.278;6.808;2023-11-22T00:42:02;9.90;;;7.28;;
68870;SDS011;55906;52.278;6.808;2023-11-22T00:44:29;11.45;;;7.70;;
68870;SDS011;55906;52.278;6.808;2023-11-22T00:46:56;11.18;;;7.15;;
68870;SDS011;55906;52.278;6.808;2023-11-22T00:49:24;10.65;;;7.13;;
68870;SDS011;55906;52.278;6.808;2023-11-22T00:51:51;10.48;;;7.13;;
68870;SDS011;55906;52.278;6.808;2023-11-22T00:54:18;9.68;;;6.47;;
68870;SDS011;55906;52.278;6.808;2023-11-22T00:56:45;8.80;;;5.87;;
68870;SDS011;55906;52.278;6.808;2023-11-22T00:59:11;10.57;;;7.18;;
68870;SDS011;55906;52.278;6.808;2023-11-22T01:01:39;8.45;;;5.90;;
68870;SDS011;55906;52.278;6.808;2023-11-22T01:04:06;9.50;;;6.10;;
68870;SDS011;55906;52.278;6.808;2023-11-22T01:06:34;8.82;;;6.15;;
68870;SDS011;55906;52.278;6.808;2023-11-22T01:09:02;9.05;;;5.70;;
68870;SDS011;55906;52.278;6.808;2023-11-22T01:11:28;11.10;;;7.43;;
68870;SDS011;55906;52.278;6.808;2023-11-22T01:13:55;10.07;;;6.50;;
68870;SDS011;55906;52.278;6.808;2023-11-22T01:16:22;8.85;;;6.15;;
68870;SDS011;55906;52.278;6.808;2023-11-22T01:18:48;9.00;;;6.32;;
68870;SDS011;55906;52.278;6.808;2023-11-22T01:21:15;8.97;;;6.50;;
68870;SDS011;55906;52.278;6.808;2023-11-22T01:23:44;8.85;;;6.20;;
68870;SDS011;55906;52.278;6.808;2023-11-22T01:26:11;10.60;;;7.22;;
68870;SDS011;55906;52.278;6.808;2023-11-22T01:28:38;9.83;;;6.50;;
68870;SDS011;55906;52.278;6.808;2023-11-22T01:31:10;11.75;;;6.82;;
68870;SDS011;55906;52.278;6.808;2023-11-22T01:33:38;10.65;;;6.38;;
68870;SDS011;55906;52.278;6.808;2023-11-22T01:39:28;9.63;;;6.32;;
68870;SDS011;55906;52.278;6.808;2023-11-22T01:41:54;10.30;;;6.35;;
68870;SDS011;55906;52.278;6.808;2023-11-22T01:44:21;9.70;;;5.97;;
68870;SDS011;55906;52.278;6.808;2023-11-22T01:46:48;9.60;;;5.70;;
68870;SDS011;55906;52.278;6.808;2023-11-22T01:49:16;8.57;;;5.93;;
68870;SDS011;55906;52.278;6.808;2023-11-22T01:51:43;9.68;;;5.57;;
68870;SDS011;55906;52.278;6.808;2023-11-22T01:54:11;10.93;;;7.23;;
68870;SDS011;55906;52.278;6.808;2023-11-22T01:56:39;9.45;;;6.95;;
68870;SDS011;55906;52.278;6.808;2023-11-22T01:59:06;8.15;;;5.63;;
68870;SDS011;55906;52.278;6.808;2023-11-22T02:01:33;9.05;;;6.07;;
68870;SDS011;55906;52.278;6.808;2023-11-22T02:04:00;10.43;;;6.10;;
68870;SDS011;55906;52.278;6.808;2023-11-22T02:06:27;8.80;;;6.13;;
68870;SDS011;55906;52.278;6.808;2023-11-22T02:08:56;8.88;;;6.28;;
68870;SDS011;55906;52.278;6.808;2023-11-22T02:11:22;9.83;;;6.37;;
68870;SDS011;55906;52.278;6.808;2023-11-22T02:13:51;8.75;;;5.93;;
68870;SDS011;55906;52.278;6.808;2023-11-22T02:16:17;9.10;;;6.10;;
68870;SDS011;55906;52.278;6.808;2023-11-22T02:18:45;10.87;;;6.50;;
68870;SDS011;55906;52.278;6.808;2023-11-22T02:21:12;9.05;;;6.55;;
68870;SDS011;55906;52.278;6.808;2023-11-22T02:23:41;7.78;;;5.80;;
68870;SDS011;55906;52.278;6.808;2023-11-22T02:26:08;10.23;;;6.60;;
68870;SDS011;55906;52.278;6.808;2023-11-22T02:28:34;9.82;;;5.65;;
68870;SDS011;55906;52.278;6.808;2023-11-22T02:31:01;8.63;;;6.18;;
68870;SDS011;55906;52.278;6.808;2023-11-22T02:33:28;8.02;;;5.95;;
68870;SDS011;55906;52.278;6.808;2023-11-22T02:35:55;8.87;;;5.80;;
68870;SDS011;55906;52.278;6.808;2023-11-22T02:38:21;9.07;;;5.57;;
68870;SDS011;55906;52.278;6.808;2023-11-22T02:40:52;8.15;;;5.70;;
68870;SDS011;55906;52.278;6.808;2023-11-22T02:43:19;11.67;;;6.20;;
68870;SDS011;55906;52.278;6.808;2023-11-22T02:45:48;9.07;;;5.80;;
68870;SDS011;55906;52.278;6.808;2023-11-22T02:48:14;9.07;;;5.88;;
68870;SDS011;55906;52.278;6.808;2023-11-22T02:50:41;8.18;;;6.00;;
68870;SDS011;55906;52.278;6.808;2023-11-22T02:53:08;10.70;;;6.55;;
68870;SDS011;55906;52.278;6.808;2023-11-22T02:55:35;9.38;;;6.32;;
68870;SDS011;55906;52.278;6.808;2023-11-22T02:58:03;8.98;;;6.43;;
68870;SDS011;55906;52.278;6.808;2023-11-22T03:00:30;10.87;;;6.83;;
68870;SDS011;55906;52.278;6.808;2023-11-22T03:02:56;8.63;;;5.63;;
68870;SDS011;55906;52.278;6.808;2023-11-22T03:05:23;9.93;;;6.68;;
68870;SDS011;55906;52.278;6.808;2023-11-22T03:07:50;9.97;;;6.93;;
68870;SDS011;55906;52.278;6.808;2023-11-22T03:10:16;12.13;;;7.53;;
68870;SDS011;55906;52.278;6.808;2023-11-22T03:12:44;11.35;;;7.00;;
68870;SDS011;55906;52.278;6.808;2023-11-22T03:15:12;9.85;;;7.28;;
68870;SDS011;55906;52.278;6.808;2023-11-22T03:17:38;11.40;;;6.75;;
68870;SDS011;55906;52.278;6.808;2023-11-22T03:20:06;10.77;;;6.57;;
68870;SDS011;55906;52.278;6.808;2023-11-22T03:22:34;12.95;;;7.28;;
68870;SDS011;55906;52.278;6.808;2023-11-22T03:25:01;9.27;;;6.57;;
68870;SDS011;55906;52.278;6.808;2023-11-22T03:27:28;10.65;;;6.97;;
68870;SDS011;55906;52.278;6.808;2023-11-22T03:29:55;12.73;;;7.05;;
68870;SDS011;55906;52.278;6.808;2023-11-22T03:32:23;11.33;;;7.23;;
68870;SDS011;55906;52.278;6.808;2023-11-22T03:34:50;9.48;;;6.30;;
68870;SDS011;55906;52.278;6.808;2023-11-22T03:37:17;9.75;;;6.95;;
68870;SDS011;55906;52.278;6.808;2023-11-22T03:39:44;9.88;;;6.70;;
68870;SDS011;55906;52.278;6.808;2023-11-22T03:42:13;10.02;;;6.43;;
68870;SDS011;55906;52.278;6.808;2023-11-22T03:44:41;11.23;;;6.97;;
68870;SDS011;55906;52.278;6.808;2023-11-22T03:47:09;10.48;;;7.13;;
68870;SDS011;55906;52.278;6.808;2023-11-22T03:49:37;10.53;;;7.20;;
68870;SDS011;55906;52.278;6.808;2023-11-22T03:52:04;8.93;;;6.60;;
68870;SDS011;55906;52.278;6.808;2023-11-22T03:54:31;8.73;;;5.95;;
68870;SDS011;55906;52.278;6.808;2023-11-22T03:56:58;10.13;;;7.27;;
68870;SDS011;55906;52.278;6.808;2023-11-22T03:59:25;10.77;;;7.10;;
68870;SDS011;55906;52.278;6.808;2023-11-22T04:01:51;10.50;;;7.03;;
68870;SDS011;55906;52.278;6.808;2023-11-22T04:04:18;11.13;;;6.97;;
68870;SDS011;55906;52.278;6.808;2023-11-22T04:06:46;10.48;;;6.75;;
68870;SDS011;55906;52.278;6.808;2023-11-22T04:09:13;11.35;;;6.85;;
68870;SDS011;55906;52.278;6.808;2023-11-22T04:11:42;10.27;;;6.45;;
68870;SDS011;55906;52.278;6.808;2023-11-22T04:14:08;9.80;;;7.00;;
68870;SDS011;55906;52.278;6.808;2023-11-22T04:16:35;10.82;;;7.20;;
68870;SDS011;55906;52.278;6.808;2023-11-22T04:19:02;10.77;;;6.90;;
68870;SDS011;55906;52.278;6.808;2023-11-22T04:21:28;9.57;;;6.57;;
68870;SDS011;55906;52.278;6.808;2023-11-22T04:23:56;9.70;;;6.45;;
68870;SDS011;55906;52.278;6.808;2023-11-22T04:26:23;8.82;;;5.65;;
68870;SDS011;55906;52.278;6.808;2023-11-22T04:28:50;8.27;;;5.78;;
68870;SDS011;55906;52.278;6.808;2023-11-22T04:31:17;8.32;;;5.95;;
68870;SDS011;55906;52.278;6.808;2023-11-22T04:33:43;9.13;;;6.38;;
68870;SDS011;55906;52.278;6.808;2023-11-22T04:36:10;8.75;;;6.38;;
68870;SDS011;55906;52.278;6.808;2023-11-22T04:38:37;7.83;;;5.80;;
68870;SDS011;55906;52.278;6.808;2023-11-22T04:41:05;8.80;;;6.18;;
68870;SDS011;55906;52.278;6.808;2023-11-22T04:43:31;8.38;;;5.75;;
68870;SDS011;55906;52.278;6.808;2023-11-22T04:45:58;9.13;;;6.60;;
68870;SDS011;55906;52.278;6.808;2023-11-22T04:48:25;10.07;;;6.47;;
68870;SDS011;55906;52.278;6.808;2023-11-22T04:50:51;8.98;;;6.63;;
68870;SDS011;55906;52.278;6.808;2023-11-22T04:53:18;9.73;;;6.90;;
68870;SDS011;55906;52.278;6.808;2023-11-22T04:55:45;10.60;;;7.22;;
68870;SDS011;55906;52.278;6.808;2023-11-22T04:58:13;9.93;;;5.90;;
68870;SDS011;55906;52.278;6.808;2023-11-22T05:00:40;8.70;;;6.10;;
68870;SDS011;55906;52.278;6.808;2023-11-22T05:03:06;9.33;;;6.40;;
68870;SDS011;55906;52.278;6.808;2023-11-22T05:05:33;9.38;;;6.18;;
68870;SDS011;55906;52.278;6.808;2023-11-22T05:07:59;8.35;;;6.07;;
68870;SDS011;55906;52.278;6.808;2023-11-22T05:10:27;8.87;;;6.10;;
68870;SDS011;55906;52.278;6.808;2023-11-22T05:12:54;8.27;;;6.13;;
68870;SDS011;55906;52.278;6.808;2023-11-22T05:15:25;9.48;;;6.20;;
68870;SDS011;55906;52.278;6.808;2023-11-22T05:17:52;7.38;;;5.20;;
68870;SDS011;55906;52.278;6.808;2023-11-22T05:20:19;8.27;;;5.65;;
68870;SDS011;55906;52.278;6.808;2023-11-22T05:22:46;8.85;;;6.15;;
68870;SDS011;55906;52.278;6.808;2023-11-22T05:25:12;10.80;;;6.10;;
68870;SDS011;55906;52.278;6.808;2023-11-22T05:27:39;8.37;;;5.87;;
68870;SDS011;55906;52.278;6.808;2023-11-22T05:30:06;8.65;;;6.00;;
68870;SDS011;55906;52.278;6.808;2023-11-22T05:32:37;8.60;;;5.93;;
68870;SDS011;55906;52.278;6.808;2023-11-22T05:35:04;8.80;;;6.90;;
68870;SDS011;55906;52.278;6.808;2023-11-22T05:37:34;9.23;;;6.30;;
68870;SDS011;55906;52.278;6.808;2023-11-22T05:40:02;10.52;;;7.15;;
68870;SDS011;55906;52.278;6.808;2023-11-22T05:42:29;11.05;;;7.30;;
68870;SDS011;55906;52.278;6.808;2023-11-22T05:44:56;11.82;;;7.90;;
68870;SDS011;55906;52.278;6.808;2023-11-22T05:47:23;10.02;;;6.82;;
68870;SDS011;55906;52.278;6.808;2023-11-22T05:49:51;11.02;;;7.20;;
68870;SDS011;55906;52.278;6.808;2023-11-22T05:52:18;7.87;;;5.70;;
68870;SDS011;55906;52.278;6.808;2023-11-22T05:54:45;11.23;;;7.07;;
68870;SDS011;55906;52.278;6.808;2023-11-22T05:57:12;12.18;;;6.93;;
68870;SDS011;55906;52.278;6.808;2023-11-22T05:59:40;10.07;;;6.93;;
68870;SDS011;55906;52.278;6.808;2023-11-22T06:02:07;10.20;;;6.95;;
68870;SDS011;55906;52.278;6.808;2023-11-22T06:04:33;9.63;;;7.50;;
68870;SDS011;55906;52.278;6.808;2023-11-22T06:07:01;10.05;;;6.90;;
68870;SDS011;55906;52.278;6.808;2023-11-22T06:09:30;10.10;;;6.55;;
68870;SDS011;55906;52.278;6.808;2023-11-22T06:11:56;10.27;;;7.03;;
68870;SDS011;55906;52.278;6.808;2023-11-22T06:14:23;10.93;;;7.18;;
68870;SDS011;55906;52.278;6.808;2023-11-22T06:16:49;11.57;;;7.13;;
68870;SDS011;55906;52.278;6.808;2023-11-22T06:19:16;9.48;;;6.50;;
68870;SDS011;55906;52.278;6.808;2023-11-22T06:21:43;10.85;;;6.70;;
68870;SDS011;55906;52.278;6.808;2023-11-22T06:24:11;9.77;;;7.33;;
68870;SDS011;55906;52.278;6.808;2023-11-22T06:26:41;8.95;;;6.43;;
68870;SDS011;55906;52.278;6.808;2023-11-22T06:29:08;9.45;;;6.38;;
68870;SDS011;55906;52.278;6.808;2023-11-22T06:31:34;9.93;;;7.68;;
68870;SDS011;55906;52.278;6.808;2023-11-22T06:34:01;10.63;;;7.15;;
68870;SDS011;55906;52.278;6.808;2023-11-22T06:36:28;11.82;;;7.22;;
68870;SDS011;55906;52.278;6.808;2023-11-22T06:38:55;9.98;;;7.10;;
68870;SDS011;55906;52.278;6.808;2023-11-22T06:41:23;11.53;;;8.10;;
68870;SDS011;55906;52.278;6.808;2023-11-22T06:43:50;14.50;;;8.52;;
68870;SDS011;55906;52.278;6.808;2023-11-22T06:46:18;12.63;;;8.43;;
68870;SDS011;55906;52.278;6.808;2023-11-22T06:48:44;14.60;;;9.50;;
68870;SDS011;55906;52.278;6.808;2023-11-22T06:51:13;15.13;;;9.65;;
68870;SDS011;55906;52.278;6.808;2023-11-22T06:53:40;16.23;;;9.63;;
68870;SDS011;55906;52.278;6.808;2023-11-22T06:56:07;13.82;;;8.65;;
68870;SDS011;55906;52.278;6.808;2023-11-22T06:58:35;14.13;;;9.63;;
68870;SDS011;55906;52.278;6.808;2023-11-22T07:01:01;14.32;;;8.95;;
68870;SDS011;55906;52.278;6.808;2023-11-22T07:03:28;16.40;;;9.70;;
68870;SDS011;55906;52.278;6.808;2023-11-22T07:05:56;13.90;;;8.87;;
68870;SDS011;55906;52.278;6.808;2023-11-22T07:08:24;15.70;;;8.90;;
68870;SDS011;55906;52.278;6.808;2023-11-22T07:10:53;14.57;;;9.75;;
68870;SDS011;55906;52.278;6.808;2023-11-22T07:13:21;13.97;;;10.80;;
68870;SDS011;55906;52.278;6.808;2023-11-22T07:15:50;17.95;;;12.05;;
68870;SDS011;55906;52.278;6.808;2023-11-22T07:18:19;15.77;;;10.60;;
68870;SDS011;55906;52.278;6.808;2023-11-22T07:20:49;16.92;;;11.27;;
68870;SDS011;55906;52.278;6.808;2023-11-22T07:23:16;17.92;;;11.40;;
68870;SDS011;55906;52.278;6.808;2023-11-22T07:25:43;15.60;;;9.70;;
68870;SDS011;55906;52.278;6.808;2023-11-22T07:28:10;17.83;;;10.68;;
68870;SDS011;55906;52.278;6.808;2023-11-22T07:30:36;17.03;;;11.13;;
68870;SDS011;55906;52.278;6.808;2023-11-22T07:33:07;13.02;;;8.68;;
68870;SDS011;55906;52.278;6.808;2023-11-22T07:35:34;16.75;;;10.43;;
68870;SDS011;55906;52.278;6.808;2023-11-22T07:38:01;22.53;;;11.10;;
68870;SDS011;55906;52.278;6.808;2023-11-22T07:40:28;15.15;;;9.90;;
68870;SDS011;55906;52.278;6.808;2023-11-22T07:42:55;15.05;;;9.25;;
68870;SDS011;55906;52.278;6.808;2023-11-22T07:45:22;16.73;;;10.00;;
68870;SDS011;55906;52.278;6.808;2023-11-22T07:47:48;14.43;;;9.40;;
68870;SDS011;55906;52.278;6.808;2023-11-22T07:50:19;15.20;;;9.18;;
68870;SDS011;55906;52.278;6.808;2023-11-22T07:52:47;12.77;;;8.07;;
68870;SDS011;55906;52.278;6.808;2023-11-22T07:55:13;13.03;;;9.27;;
68870;SDS011;55906;52.278;6.808;2023-11-22T07:57:43;11.95;;;8.55;;
68870;SDS011;55906;52.278;6.808;2023-11-22T08:00:10;13.75;;;8.40;;
68870;SDS011;55906;52.278;6.808;2023-11-22T08:02:38;13.60;;;8.60;;
68870;SDS011;55906;52.278;6.808;2023-11-22T08:05:05;11.00;;;7.78;;
68870;SDS011;55906;52.278;6.808;2023-11-22T08:07:34;11.73;;;7.80;;
68870;SDS011;55906;52.278;6.808;2023-11-22T08:10:03;12.43;;;7.85;;
68870;SDS011;55906;52.278;6.808;2023-11-22T08:12:34;12.23;;;8.55;;
68870;SDS011;55906;52.278;6.808;2023-11-22T08:15:02;16.83;;;11.15;;
68870;SDS011;55906;52.278;6.808;2023-11-22T08:17:29;14.05;;;8.45;;
68870;SDS011;55906;52.278;6.808;2023-11-22T08:19:57;12.37;;;8.37;;
68870;SDS011;55906;52.278;6.808;2023-11-22T08:22:25;15.18;;;9.68;;
68870;SDS011;55906;52.278;6.808;2023-11-22T08:24:54;16.05;;;9.68;;
68870;SDS011;55906;52.278;6.808;2023-11-22T08:27:22;13.87;;;9.50;;
68870;SDS011;55906;52.278;6.808;2023-11-22T08:29:49;15.40;;;9.88;;
68870;SDS011;55906;52.278;6.808;2023-11-22T08:32:15;13.68;;;9.18;;
68870;SDS011;55906;52.278;6.808;2023-11-22T08:34:45;15.32;;;10.40;;
68870;SDS011;55906;52.278;6.808;2023-11-22T08:37:12;14.83;;;9.47;;
68870;SDS011;55906;52.278;6.808;2023-11-22T08:39:39;12.00;;;8.38;;
68870;SDS011;55906;52.278;6.808;2023-11-22T08:42:07;14.18;;;9.73;;
68870;SDS011;55906;52.278;6.808;2023-11-22T08:44:34;13.98;;;8.77;;
68870;SDS011;55906;52.278;6.808;2023-11-22T08:47:01;12.65;;;9.50;;
68870;SDS011;55906;52.278;6.808;2023-11-22T08:49:28;14.63;;;9.55;;
68870;SDS011;55906;52.278;6.808;2023-11-22T08:51:55;13.60;;;10.00;;
68870;SDS011;55906;52.278;6.808;2023-11-22T08:54:24;12.98;;;9.02;;
68870;SDS011;55906;52.278;6.808;2023-11-22T08:56:53;12.80;;;9.25;;
68870;SDS011;55906;52.278;6.808;2023-11-22T08:59:22;10.97;;;7.77;;
68870;SDS011;55906;52.278;6.808;2023-11-22T09:01:49;14.20;;;9.70;;
68870;SDS011;55906;52.278;6.808;2023-11-22T09:04:16;12.95;;;9.68;;
68870;SDS011;55906;52.278;6.808;2023-11-22T09:06:43;14.32;;;9.40;;
68870;SDS011;55906;52.278;6.808;2023-11-22T09:09:12;14.20;;;9.90;;
68870;SDS011;55906;52.278;6.808;2023-11-22T09:11:40;13.73;;;9.57;;
68870;SDS011;55906;52.278;6.808;2023-11-22T09:14:07;12.52;;;8.75;;
68870;SDS011;55906;52.278;6.808;2023-11-22T09:16:37;18.27;;;11.05;;
68870;SDS011;55906;52.278;6.808;2023-11-22T09:19:04;12.25;;;9.02;;
68870;SDS011;55906;52.278;6.808;2023-11-22T09:21:31;18.88;;;9.65;;
68870;SDS011;55906;52.278;6.808;2023-11-22T09:23:58;13.13;;;8.33;;
68870;SDS011;55906;52.278;6.808;2023-11-22T09:26:25;14.60;;;9.50;;
68870;SDS011;55906;52.278;6.808;2023-11-22T09:28:51;14.05;;;9.88;;
68870;SDS011;55906;52.278;6.808;2023-11-22T09:31:19;17.63;;;11.00;;
68870;SDS011;55906;52.278;6.808;2023-11-22T09:33:47;15.00;;;9.00;;
68870;SDS011;55906;52.278;6.808;2023-11-22T09:36:14;16.40;;;10.05;;
68870;SDS011;55906;52.278;6.808;2023-11-22T09:38:43;14.88;;;9.10;;
68870;SDS011;55906;52.278;6.808;2023-11-22T09:41:09;14.73;;;10.10;;
68870;SDS011;55906;52.278;6.808;2023-11-22T09:43:37;16.45;;;9.88;;
68870;SDS011;55906;52.278;6.808;2023-11-22T09:46:05;12.25;;;8.55;;
68870;SDS011;55906;52.278;6.808;2023-11-22T09:48:35;11.60;;;8.38;;
68870;SDS011;55906;52.278;6.808;2023-11-22T09:51:05;14.97;;;8.67;;
68870;SDS011;55906;52.278;6.808;2023-11-22T09:53:40;14.18;;;9.90;;
68870;SDS011;55906;52.278;6.808;2023-11-22T09:56:11;15.07;;;9.35;;
68870;SDS011;55906;52.278;6.808;2023-11-22T09:58:39;12.02;;;8.30;;
68870;SDS011;55906;52.278;6.808;2023-11-22T10:01:08;10.67;;;7.40;;
68870;SDS011;55906;52.278;6.808;2023-11-22T10:03:38;13.48;;;7.95;;
68870;SDS011;55906;52.278;6.808;2023-11-22T10:06:07;13.50;;;9.45;;
68870;SDS011;55906;52.278;6.808;2023-11-22T10:08:34;12.60;;;8.30;;
68870;SDS011;55906;52.278;6.808;2023-11-22T10:11:02;12.10;;;7.97;;
68870;SDS011;55906;52.278;6.808;2023-11-22T10:13:30;10.52;;;8.00;;
68870;SDS011;55906;52.278;6.808;2023-11-22T10:15:56;12.45;;;8.05;;
68870;SDS011;55906;52.278;6.808;2023-11-22T10:18:38;12.82;;;7.85;;
68870;SDS011;55906;52.278;6.808;2023-11-22T10:21:15;13.47;;;8.50;;
68870;SDS011;55906;52.278;6.808;2023-11-22T10:23:45;12.57;;;7.88;;
68870;SDS011;55906;52.278;6.808;2023-11-22T10:26:13;12.98;;;8.25;;
68870;SDS011;55906;52.278;6.808;2023-11-22T10:28:41;11.68;;;7.82;;
68870;SDS011;55906;52.278;6.808;2023-11-22T10:31:09;12.18;;;7.90;;
68870;SDS011;55906;52.278;6.808;2023-11-22T10:33:48;12.20;;;8.07;;
68870;SDS011;55906;52.278;6.808;2023-11-22T10:36:15;11.05;;;7.30;;
68870;SDS011;55906;52.278;6.808;2023-11-22T10:38:45;11.55;;;6.97;;
68870;SDS011;55906;52.278;6.808;2023-11-22T10:41:12;12.00;;;7.38;;
68870;SDS011;55906;52.278;6.808;2023-11-22T10:43:39;11.48;;;6.95;;
68870;SDS011;55906;52.278;6.808;2023-11-22T10:46:07;13.13;;;7.57;;
68870;SDS011;55906;52.278;6.808;2023-11-22T10:48:35;11.93;;;6.90;;
68870;SDS011;55906;52.278;6.808;2023-11-22T10:51:04;9.47;;;6.90;;
68870;SDS011;55906;52.278;6.808;2023-11-22T10:53:31;9.20;;;6.57;;
68870;SDS011;55906;52.278;6.808;2023-11-22T10:56:04;10.90;;;6.82;;
68870;SDS011;55906;52.278;6.808;2023-11-22T10:58:37;10.52;;;6.88;;
68870;SDS011;55906;52.278;6.808;2023-11-22T11:01:11;9.17;;;6.50;;
68870;SDS011;55906;52.278;6.808;2023-11-22T11:03:40;11.02;;;6.72;;
68870;SDS011;55906;52.278;6.808;2023-11-22T11:06:15;11.07;;;7.10;;
68870;SDS011;55906;52.278;6.808;2023-11-22T11:08:48;9.68;;;6.43;;
68870;SDS011;55906;52.278;6.808;2023-11-22T11:11:15;10.83;;;6.80;;
68870;SDS011;55906;52.278;6.808;2023-11-22T11:13:44;12.63;;;7.13;;
68870;SDS011;55906;52.278;6.808;2023-11-22T11:16:13;22.85;;;7.57;;
68870;SDS011;55906;52.278;6.808;2023-11-22T11:18:41;10.55;;;6.85;;
68870;SDS011;55906;52.278;6.808;2023-11-22T11:21:08;9.65;;;6.57;;
68870;SDS011;55906;52.278;6.808;2023-11-22T11:23:38;9.37;;;6.13;;
68870;SDS011;55906;52.278;6.808;2023-11-22T11:26:13;9.07;;;5.78;;
68870;SDS011;55906;52.278;6.808;2023-11-22T11:28:42;10.18;;;6.53;;
68870;SDS011;55906;52.278;6.808;2023-11-22T11:31:10;11.18;;;6.32;;
68870;SDS011;55906;52.278;6.808;2023-11-22T11:33:54;10.40;;;6.70;;
68870;SDS011;55906;52.278;6.808;2023-11-22T11:36:23;9.97;;;5.77;;
68870;SDS011;55906;52.278;6.808;2023-11-22T11:38:52;11.57;;;6.70;;
68870;SDS011;55906;52.278;6.808;2023-11-22T11:41:24;10.60;;;6.70;;
68870;SDS011;55906;52.278;6.808;2023-11-22T11:43:53;10.20;;;6.78;;
68870;SDS011;55906;52.278;6.808;2023-11-22T11:46:20;9.95;;;6.40;;
68870;SDS011;55906;52.278;6.808;2023-11-22T11:48:48;10.43;;;6.90;;
68870;SDS011;55906;52.278;6.808;2023-11-22T11:51:17;14.45;;;6.60;;
68870;SDS011;55906;52.278;6.808;2023-11-22T11:53:44;8.43;;;5.80;;
68870;SDS011;55906;52.278;6.808;2023-11-22T11:56:13;9.80;;;6.32;;
68870;SDS011;55906;52.278;6.808;2023-11-22T11:58:40;9.05;;;5.60;;
68870;SDS011;55906;52.278;6.808;2023-11-22T12:01:08;8.37;;;5.73;;
68870;SDS011;55906;52.278;6.808;2023-11-22T12:03:35;10.20;;;6.40;;
68870;SDS011;55906;52.278;6.808;2023-11-22T12:06:03;9.02;;;6.13;;
68870;SDS011;55906;52.278;6.808;2023-11-22T12:08:30;8.73;;;5.40;;
68870;SDS011;55906;52.278;6.808;2023-11-22T12:11:01;7.65;;;5.20;;
68870;SDS011;55906;52.278;6.808;2023-11-22T12:13:30;11.43;;;5.90;;
68870;SDS011;55906;52.278;6.808;2023-11-22T12:15:57;9.30;;;5.63;;
68870;SDS011;55906;52.278;6.808;2023-11-22T12:18:24;8.85;;;5.90;;
68870;SDS011;55906;52.278;6.808;2023-11-22T12:20:54;10.25;;;5.45;;
68870;SDS011;55906;52.278;6.808;2023-11-22T12:23:22;8.32;;;5.20;;
68870;SDS011;55906;52.278;6.808;2023-11-22T12:25:52;8.23;;;5.33;;
68870;SDS011;55906;52.278;6.808;2023-11-22T12:28:21;9.07;;;6.05;;
68870;SDS011;55906;52.278;6.808;2023-11-22T12:30:50;8.63;;;5.57;;
68870;SDS011;55906;52.278;6.808;2023-11-22T12:33:17;8.30;;;5.50;;
68870;SDS011;55906;52.278;6.808;2023-11-22T12:35:44;10.43;;;5.65;;
68870;SDS011;55906;52.278;6.808;2023-11-22T12:38:11;9.43;;;4.90;;
68870;SDS011;55906;52.278;6.808;2023-11-22T12:40:43;6.82;;;4.88;;
68870;SDS011;55906;52.278;6.808;2023-11-22T12:43:11;8.10;;;4.88;;
68870;SDS011;55906;52.278;6.808;2023-11-22T12:45:39;7.45;;;4.85;;
68870;SDS011;55906;52.278;6.808;2023-11-22T12:48:21;7.32;;;5.00;;
68870;SDS011;55906;52.278;6.808;2023-11-22T12:50:49;9.37;;;6.03;;
68870;SDS011;55906;52.278;6.808;2023-11-22T12:53:17;9.00;;;5.35;;
68870;SDS011;55906;52.278;6.808;2023-11-22T12:55:47;7.57;;;5.38;;
68870;SDS011;55906;52.278;6.808;2023-11-22T12:58:14;8.15;;;5.18;;
68870;SDS011;55906;52.278;6.808;2023-11-22T13:00:41;7.30;;;5.05;;
68870;SDS011;55906;52.278;6.808;2023-11-22T13:03:08;8.37;;;5.57;;
68870;SDS011;55906;52.278;6.808;2023-11-22T13:05:37;8.48;;;5.18;;
68870;SDS011;55906;52.278;6.808;2023-11-22T13:08:04;12.55;;;5.97;;
68870;SDS011;55906;52.278;6.808;2023-11-22T13:10:31;7.90;;;5.47;;
68870;SDS011;55906;52.278;6.808;2023-11-22T13:12:58;9.60;;;5.60;;
68870;SDS011;55906;52.278;6.808;2023-11-22T13:15:26;9.77;;;5.83;;
68870;SDS011;55906;52.278;6.808;2023-11-22T13:17:52;7.45;;;4.93;;
68870;SDS011;55906;52.278;6.808;2023-11-22T13:20:21;8.02;;;5.60;;
68870;SDS011;55906;52.278;6.808;2023-11-22T13:22:49;12.23;;;6.20;;
68870;SDS011;55906;52.278;6.808;2023-11-22T13:25:16;8.25;;;5.50;;
68870;SDS011;55906;52.278;6.808;2023-11-22T13:27:44;9.07;;;5.63;;
68870;SDS011;55906;52.278;6.808;2023-11-22T13:30:12;8.73;;;5.60;;
68870;SDS011;55906;52.278;6.808;2023-11-22T13:32:39;10.40;;;5.80;;
68870;SDS011;55906;52.278;6.808;2023-11-22T13:35:08;9.95;;;6.40;;
68870;SDS011;55906;52.278;6.808;2023-11-22T13:37:40;9.00;;;6.22;;
68870;SDS011;55906;52.278;6.808;2023-11-22T13:40:10;9.67;;;6.27;;
68870;SDS011;55906;52.278;6.808;2023-11-22T13:42:40;9.35;;;5.82;;
68870;SDS011;55906;52.278;6.808;2023-11-22T13:45:10;8.25;;;6.10;;
68870;SDS011;55906;52.278;6.808;2023-11-22T13:47:42;10.68;;;6.35;;
68870;SDS011;55906;52.278;6.808;2023-11-22T13:50:11;10.25;;;6.00;;
68870;SDS011;55906;52.278;6.808;2023-11-22T13:52:40;10.93;;;6.80;;
68870;SDS011;55906;52.278;6.808;2023-11-22T13:55:07;10.75;;;6.75;;
68870;SDS011;55906;52.278;6.808;2023-11-22T13:57:37;24.65;;;11.05;;
68870;SDS011;55906;52.278;6.808;2023-11-22T14:00:04;14.65;;;7.57;;
68870;SDS011;55906;52.278;6.808;2023-11-22T14:02:34;9.45;;;6.22;;
68870;SDS011;55906;52.278;6.808;2023-11-22T14:05:01;12.10;;;7.03;;
68870;SDS011;55906;52.278;6.808;2023-11-22T14:07:32;10.35;;;6.25;;
68870;SDS011;55906;52.278;6.808;2023-11-22T14:09:59;8.87;;;6.30;;
68870;SDS011;55906;52.278;6.808;2023-11-22T14:12:28;9.48;;;5.90;;
68870;SDS011;55906;52.278;6.808;2023-11-22T14:14:56;9.40;;;6.45;;
68870;SDS011;55906;52.278;6.808;2023-11-22T14:17:23;15.25;;;8.10;;
68870;SDS011;55906;52.278;6.808;2023-11-22T14:19:50;11.90;;;8.10;;
68870;SDS011;55906;52.278;6.808;2023-11-22T14:22:17;9.77;;;6.57;;
68870;SDS011;55906;52.278;6.808;2023-11-22T14:24:45;9.95;;;6.63;;
68870;SDS011;55906;52.278;6.808;2023-11-22T14:27:12;9.23;;;6.93;;
68870;SDS011;55906;52.278;6.808;2023-11-22T14:29:39;13.03;;;7.00;;
68870;SDS011;55906;52.278;6.808;2023-11-22T14:32:08;9.77;;;7.00;;
68870;SDS011;55906;52.278;6.808;2023-11-22T14:34:35;11.35;;;7.50;;
68870;SDS011;55906;52.278;6.808;2023-11-22T14:37:03;20.77;;;12.65;;
68870;SDS011;55906;52.278;6.808;2023-11-22T14:39:31;31.43;;;18.20;;
68870;SDS011;55906;52.278;6.808;2023-11-22T14:41:59;19.92;;;12.65;;
68870;SDS011;55906;52.278;6.808;2023-11-22T14:44:25;13.95;;;10.27;;